CheckWX is a tool to help pilots better visualize weather data.  It is not intended as a substitute for an official pre-flight weather briefing.

14:38:26 UTC

KEYW METAR
Key West International Airport
Key West, Florida, USA
Current

45 mins ago

KEYW 251353Z 14012KT 10SM CLR 27/21 A3000 RMK AO2 SLP160 T02670206
Observed
Apr-25 @ 13:53 UTC
Wind
  • 140° at 12 KTS
Visibility
10 SM
Flight Rules
VFR
Cloud Levels
  • Clear skies
Temperature
27°C / 81°F
Dewpoint
21°C / 70°F
Heat Index
29°C / 85°F
Humidity
70%
Altimeter
30" Hg
Pressure
1015.92 hPa
Previous

2 hours ago

KEYW 251253Z 13009KT 10SM CLR 26/19 A3000 RMK AO2 SLP159 T02560194
Observed
Apr-25 @ 12:53 UTC
Wind
  • 130° at 9 KTS
Visibility
10 SM
Flight Rules
VFR
Cloud Levels
  • Clear skies
Temperature
26°C / 79°F
Dewpoint
19°C / 66°F
Humidity
65%
Altimeter
30" Hg
Pressure
1015.92 hPa
Previous

3 hours ago

KEYW 251153Z 14010KT 10SM FEW024 25/19 A2998 RMK AO2 SLP153 T02500194 10250 20244 53013
Observed
Apr-25 @ 11:53 UTC
Wind
  • 140° at 10 KTS
Visibility
10 SM
Flight Rules
VFR
Cloud Levels
  • Few at 2,400' AGL
Temperature
25°C / 77°F
Dewpoint
19°C / 66°F
Humidity
69%
Altimeter
29.98" Hg
Pressure
1015.22 hPa